createdAt,value
2016-10-03T00:00:43.808Z,-3.89
2016-10-03T00:01:43.786Z,-3.98
2016-10-03T00:02:43.754Z,-3.99
2016-10-03T00:03:43.736Z,-3.99
2016-10-03T00:04:43.692Z,-3.97
2016-10-03T00:05:43.689Z,-3.95
2016-10-03T00:06:43.673Z,-3.94
2016-10-03T00:07:43.649Z,-3.89
2016-10-03T00:08:43.615Z,-4.02
2016-10-03T00:09:43.636Z,-3.97
2016-10-03T00:10:43.571Z,-3.91
2016-10-03T00:11:43.590Z,-3.92
2016-10-03T00:12:43.550Z,-3.94
2016-10-03T00:13:43.549Z,-3.94
2016-10-03T00:14:43.509Z,-3.94
2016-10-03T00:15:43.473Z,-3.95
2016-10-03T00:16:43.476Z,-3.91
2016-10-03T00:17:43.448Z,-3.97
2016-10-03T00:18:43.451Z,-3.92
2016-10-03T00:19:43.430Z,-4.02
2016-10-03T00:20:43.409Z,-3.98
2016-10-03T00:21:43.378Z,-4.01
2016-10-03T00:22:43.356Z,-4.15
2016-10-03T00:23:43.343Z,-4.16
2016-10-03T00:24:43.301Z,-4.09
2016-10-03T00:25:43.311Z,-4.1
2016-10-03T00:26:43.284Z,-4.1
2016-10-03T00:27:43.256Z,-4.09
2016-10-03T00:28:43.237Z,-4.12
2016-10-03T00:29:43.221Z,-4.28
2016-10-03T00:30:43.175Z,-4.26
2016-10-03T00:31:43.490Z,-4.27
2016-10-03T00:32:43.148Z,-4.33
2016-10-03T00:33:43.130Z,-4.37
2016-10-03T00:34:43.135Z,-4.27
2016-10-03T00:35:43.095Z,-4.37
2016-10-03T00:36:43.079Z,-4.31
2016-10-03T00:37:43.035Z,-4.26
2016-10-03T00:38:43.037Z,-4.26
2016-10-03T00:39:43.029Z,-4.16
2016-10-03T00:40:42.987Z,-4.28
2016-10-03T00:41:42.991Z,-4.28
2016-10-03T00:42:42.963Z,-4.3
2016-10-03T00:43:42.938Z,-4.36
2016-10-03T00:44:42.916Z,-4.34
2016-10-03T00:45:42.895Z,-4.31
2016-10-03T00:46:42.869Z,-4.37
2016-10-03T00:47:42.853Z,-4.33
2016-10-03T00:48:42.834Z,-4.36
2016-10-03T00:49:42.827Z,-4.37
2016-10-03T00:50:42.784Z,-4.31
2016-10-03T00:51:42.775Z,-4.33
2016-10-03T00:52:42.766Z,-4.27
2016-10-03T00:53:42.724Z,-4.3
2016-10-03T00:54:42.703Z,-4.28
2016-10-03T00:55:42.706Z,-4.19
2016-10-03T00:56:42.681Z,-4.12
2016-10-03T00:57:42.632Z,-4.1
2016-10-03T00:58:42.611Z,-4.15
2016-10-03T00:59:42.606Z,-4.17
2016-10-03T01:00:42.599Z,-4.16
2016-10-03T01:01:42.585Z,-4.19
2016-10-03T01:02:42.535Z,-4.13
2016-10-03T01:03:42.534Z,-4.22
2016-10-03T01:04:42.529Z,-4.3
2016-10-03T01:05:42.501Z,-4.17
2016-10-03T01:06:42.458Z,-4.31
2016-10-03T01:07:42.462Z,-4.33
2016-10-03T01:08:42.437Z,-4.34
2016-10-03T01:09:42.402Z,-4.37
2016-10-03T01:10:42.403Z,-4.44
2016-10-03T01:11:42.372Z,-4.34
2016-10-03T01:12:42.354Z,-4.44
2016-10-03T01:13:42.326Z,-4.45
2016-10-03T01:14:42.314Z,-4.4
2016-10-03T01:15:42.273Z,-4.37
2016-10-03T01:16:42.275Z,-4.33
2016-10-03T01:17:42.234Z,-4.38
2016-10-03T01:18:42.237Z,-4.49
2016-10-03T01:19:42.229Z,-4.46
2016-10-03T01:20:42.192Z,-4.31
2016-10-03T01:21:42.168Z,-4.34
2016-10-03T01:22:42.155Z,-4.36
2016-10-03T01:23:42.153Z,-4.33
2016-10-03T01:24:42.128Z,-4.38
2016-10-03T01:25:42.106Z,-4.34
2016-10-03T01:26:42.090Z,-4.34
2016-10-03T01:27:42.052Z,-4.3
2016-10-03T01:28:42.039Z,-4.3
2016-10-03T01:29:42.021Z,-4.37
2016-10-03T01:30:41.974Z,-4.33
2016-10-03T01:31:41.972Z,-4.28
2016-10-03T01:32:41.934Z,-4.28
2016-10-03T01:33:41.917Z,-4.3
2016-10-03T01:34:41.912Z,-4.23
2016-10-03T01:35:41.908Z,-4.27
2016-10-03T01:36:41.861Z,-4.3
2016-10-03T01:37:41.840Z,-4.26
2016-10-03T01:38:41.821Z,-4.37
2016-10-03T01:39:41.823Z,-4.27
2016-10-03T01:40:41.790Z,-4.3
2016-10-03T01:41:41.786Z,-4.23
2016-10-03T01:42:41.762Z,-4.27
2016-10-03T01:43:41.750Z,-4.22
2016-10-03T01:44:41.715Z,-4.31
2016-10-03T01:45:41.696Z,-4.34
2016-10-03T01:46:41.666Z,-4.34
2016-10-03T01:47:41.649Z,-4.45
2016-10-03T01:48:41.637Z,-4.4
2016-10-03T01:49:41.616Z,-4.4
2016-10-03T01:50:41.576Z,-4.36
2016-10-03T01:51:41.581Z,-4.48
2016-10-03T01:52:41.557Z,-4.41
2016-10-03T01:53:41.534Z,-4.4
2016-10-03T01:54:41.518Z,-4.46
2016-10-03T01:55:41.503Z,-4.45
2016-10-03T01:56:41.485Z,-4.48
2016-10-03T01:57:41.450Z,-4.51
2016-10-03T01:58:41.413Z,-4.52
2016-10-03T01:59:41.408Z,-4.55
2016-10-03T02:00:41.393Z,-4.48
2016-10-03T02:01:41.582Z,-4.51
2016-10-03T02:02:41.362Z,-4.46
2016-10-03T02:03:41.311Z,-4.44
2016-10-03T02:04:41.316Z,-4.58
2016-10-03T02:05:41.280Z,-4.58
2016-10-03T02:06:41.267Z,-4.51
2016-10-03T02:07:41.251Z,-4.46
2016-10-03T02:08:41.246Z,-4.46
2016-10-03T02:09:41.230Z,-4.49
2016-10-03T02:10:41.181Z,-4.56
2016-10-03T02:11:41.161Z,-4.54
2016-10-03T02:12:41.133Z,-4.4
2016-10-03T02:13:41.138Z,-4.4
2016-10-03T02:14:41.106Z,-4.37
2016-10-03T02:15:41.073Z,-4.54
2016-10-03T02:16:41.080Z,-4.52
2016-10-03T02:17:41.062Z,-4.59
2016-10-03T02:18:41.034Z,-4.65
2016-10-03T02:19:41.012Z,-4.56
2016-10-03T02:20:41.008Z,-4.63
2016-10-03T02:21:40.986Z,-4.55
2016-10-03T02:22:40.964Z,-4.59
2016-10-03T02:23:40.937Z,-4.54
2016-10-03T02:24:40.933Z,-4.56
2016-10-03T02:25:40.891Z,-4.63
2016-10-03T02:26:40.863Z,-4.72
2016-10-03T02:27:40.857Z,-4.65
2016-10-03T02:28:40.820Z,-4.66
2016-10-03T02:29:40.801Z,-4.72
2016-10-03T02:30:40.786Z,-4.65
2016-10-03T02:31:40.760Z,-4.58
2016-10-03T02:32:40.727Z,-4.59
2016-10-03T02:33:40.727Z,-4.59
2016-10-03T02:34:40.695Z,-4.62
2016-10-03T02:35:40.690Z,-4.56
2016-10-03T02:36:40.665Z,-4.58
2016-10-03T02:37:40.652Z,-4.63
2016-10-03T02:38:40.625Z,-4.76
2016-10-03T02:39:40.599Z,-4.76
2016-10-03T02:40:40.592Z,-4.76
2016-10-03T02:41:40.557Z,-4.73
2016-10-03T02:42:40.527Z,-4.73
2016-10-03T02:43:40.511Z,-4.67
2016-10-03T02:44:40.491Z,-4.63
2016-10-03T02:45:40.466Z,-4.52
2016-10-03T02:46:40.453Z,-4.54
2016-10-03T02:47:40.504Z,-4.58
2016-10-03T02:48:40.420Z,-4.58
2016-10-03T02:49:40.420Z,-4.65
2016-10-03T02:50:40.381Z,-4.73
2016-10-03T02:51:40.369Z,-4.7
2016-10-03T02:52:40.328Z,-4.59
2016-10-03T02:53:40.320Z,-4.58
2016-10-03T02:54:40.308Z,-4.65
2016-10-03T02:55:40.278Z,-4.65
2016-10-03T02:56:40.273Z,-4.62
2016-10-03T02:57:40.221Z,-4.67
2016-10-03T02:58:40.211Z,-4.67
2016-10-03T02:59:40.176Z,-4.69
2016-10-03T03:00:40.158Z,-4.72
2016-10-03T03:01:40.157Z,-4.79
2016-10-03T03:02:40.152Z,-4.66
2016-10-03T03:03:40.098Z,-4.72
2016-10-03T03:04:40.089Z,-4.76
2016-10-03T03:05:40.078Z,-4.66
2016-10-03T03:06:40.057Z,-4.76
2016-10-03T03:07:40.335Z,-4.73
2016-10-03T03:08:40.007Z,-4.67
2016-10-03T03:09:39.995Z,-4.79
2016-10-03T03:10:39.955Z,-4.67
2016-10-03T03:11:39.940Z,-4.65
2016-10-03T03:12:39.944Z,-4.65
2016-10-03T03:13:39.898Z,-4.63
2016-10-03T03:14:39.881Z,-4.72
2016-10-03T03:15:39.875Z,-4.73
2016-10-03T03:16:39.854Z,-4.66
2016-10-03T03:17:39.826Z,-4.73
2016-10-03T03:18:39.800Z,-4.79
2016-10-03T03:19:39.802Z,-4.76
2016-10-03T03:20:39.760Z,-4.76
2016-10-03T03:21:39.760Z,-4.7
2016-10-03T03:22:39.714Z,-4.73
2016-10-03T03:23:39.732Z,-4.69
2016-10-03T03:24:39.706Z,-4.69
2016-10-03T03:25:39.677Z,-4.73
2016-10-03T03:26:39.645Z,-4.65
2016-10-03T03:27:39.641Z,-4.73
2016-10-03T03:28:39.605Z,-4.81
2016-10-03T03:29:39.568Z,-4.9
2016-10-03T03:30:39.551Z,-4.83
2016-10-03T03:31:39.568Z,-4.88
2016-10-03T03:32:39.521Z,-4.88
2016-10-03T03:33:39.818Z,-4.88
2016-10-03T03:34:39.470Z,-4.9
2016-10-03T03:35:39.476Z,-4.9
2016-10-03T03:36:39.459Z,-4.79
2016-10-03T03:37:39.433Z,-4.84
2016-10-03T03:38:39.390Z,-4.74
2016-10-03T03:39:39.399Z,-4.9
2016-10-03T03:40:39.348Z,-4.79
2016-10-03T03:41:39.322Z,-4.81
2016-10-03T03:42:39.624Z,-4.88
2016-10-03T03:43:39.292Z,-4.84
2016-10-03T03:44:39.282Z,-4.87
2016-10-03T03:45:39.273Z,-4.88
2016-10-03T03:46:39.242Z,-4.9
2016-10-03T03:47:39.236Z,-4.77
2016-10-03T03:48:39.219Z,-4.87
2016-10-03T03:49:39.186Z,-4.85
2016-10-03T03:50:39.152Z,-4.87
2016-10-03T03:51:39.146Z,-4.85
2016-10-03T03:52:39.124Z,-4.84
2016-10-03T03:53:39.111Z,-4.85
2016-10-03T03:54:39.059Z,-4.9
2016-10-03T03:55:39.065Z,-4.85
2016-10-03T03:56:39.031Z,-4.88
2016-10-03T03:57:39.001Z,-4.87
2016-10-03T03:58:39.068Z,-4.81
2016-10-03T03:59:38.986Z,-4.81
2016-10-03T04:00:38.955Z,-4.87
2016-10-03T04:01:38.939Z,-4.79
2016-10-03T04:02:38.949Z,-4.77
2016-10-03T04:03:38.870Z,-4.81
2016-10-03T04:04:38.887Z,-4.79
2016-10-03T04:05:38.847Z,-4.72
2016-10-03T04:06:38.840Z,-4.79
2016-10-03T04:07:38.828Z,-4.74
2016-10-03T04:08:38.803Z,-4.77
2016-10-03T04:09:38.764Z,-4.87
2016-10-03T04:10:38.750Z,-4.87
2016-10-03T04:11:38.739Z,-4.73
2016-10-03T04:12:38.708Z,-4.66
2016-10-03T04:13:38.702Z,-4.72
2016-10-03T04:14:38.677Z,-4.65
2016-10-03T04:15:38.648Z,-4.58
2016-10-03T04:16:38.635Z,-4.49
2016-10-03T04:17:38.607Z,-4.59
2016-10-03T04:18:38.596Z,-4.58
2016-10-03T04:19:38.559Z,-4.62
2016-10-03T04:20:38.533Z,-4.45
2016-10-03T04:21:38.522Z,-4.54
2016-10-03T04:22:38.508Z,-4.49
2016-10-03T04:23:38.475Z,-4.51
2016-10-03T04:24:38.454Z,-4.41
2016-10-03T04:25:38.431Z,-4.38
2016-10-03T04:26:38.427Z,-4.52
2016-10-03T04:27:38.389Z,-4.54
2016-10-03T04:28:38.390Z,-4.59
2016-10-03T04:29:38.365Z,-4.51
2016-10-03T04:30:38.357Z,-4.45
2016-10-03T04:31:38.309Z,-4.46
2016-10-03T04:32:38.293Z,-4.46
2016-10-03T04:33:38.292Z,-4.46
2016-10-03T04:34:38.267Z,-4.41
2016-10-03T04:35:38.244Z,-4.4
2016-10-03T04:36:38.246Z,-4.37
2016-10-03T04:37:38.211Z,-4.33
2016-10-03T04:38:38.195Z,-4.38
2016-10-03T04:39:38.183Z,-4.41
2016-10-03T04:40:38.146Z,-4.4
2016-10-03T04:41:38.144Z,-4.4
2016-10-03T04:42:38.095Z,-4.36
2016-10-03T04:43:38.087Z,-4.31
2016-10-03T04:44:38.068Z,-4.36
2016-10-03T04:45:38.039Z,-4.27
2016-10-03T04:46:38.036Z,-4.2
2016-10-03T04:47:38.033Z,-4.3
2016-10-03T04:48:38.013Z,-4.23
2016-10-03T04:49:37.986Z,-4.15
2016-10-03T04:50:38.284Z,-4.17
2016-10-03T04:51:37.941Z,-4.2
2016-10-03T04:52:37.916Z,-4.12
2016-10-03T04:53:37.910Z,-4.16
2016-10-03T04:54:37.882Z,-4.12
2016-10-03T04:55:37.860Z,-4.06
2016-10-03T04:56:37.829Z,-4.16
2016-10-03T04:57:37.813Z,-4.15
2016-10-03T04:58:37.798Z,-4.17
2016-10-03T04:59:37.797Z,-4.31
2016-10-03T05:00:37.757Z,-4.15
2016-10-03T05:01:37.742Z,-4.26
2016-10-03T05:02:37.717Z,-4.13
2016-10-03T05:03:37.707Z,-4.27
2016-10-03T05:04:37.698Z,-4.27
2016-10-03T05:05:37.669Z,-4.23
2016-10-03T05:06:37.644Z,-4.23
2016-10-03T05:07:37.628Z,-4.19
2016-10-03T05:08:37.596Z,-4.07
2016-10-03T05:09:37.583Z,-4.15
2016-10-03T05:10:37.569Z,-4.09
2016-10-03T05:11:37.568Z,-4.1
2016-10-03T05:12:37.532Z,-4.04
2016-10-03T05:13:37.500Z,-4.09
2016-10-03T05:14:37.511Z,-4.12
2016-10-03T05:15:37.675Z,-4.19
2016-10-03T05:16:37.447Z,-4.26
2016-10-03T05:17:37.736Z,-4.27
2016-10-03T05:18:37.393Z,-4.27
2016-10-03T05:19:37.396Z,-4.22
2016-10-03T05:20:37.370Z,-4.31
2016-10-03T05:21:37.347Z,-4.33
2016-10-03T05:23:37.328Z,-4.37
2016-10-03T05:24:37.291Z,-4.27
2016-10-03T05:25:37.272Z,-4.2
2016-10-03T05:26:37.253Z,-4.27
2016-10-03T05:27:37.230Z,-4.26
2016-10-03T05:28:37.219Z,-4.28
2016-10-03T05:29:37.204Z,-4.3
2016-10-03T05:30:37.189Z,-4.23
2016-10-03T05:31:37.151Z,-4.15
2016-10-03T05:32:37.145Z,-4.22
2016-10-03T05:33:37.114Z,-4.07
2016-10-03T05:34:37.094Z,-4.12
2016-10-03T05:35:37.094Z,-4.15
2016-10-03T05:36:37.069Z,-3.97
2016-10-03T05:37:37.225Z,-4.04
2016-10-03T05:38:37.042Z,-3.98
2016-10-03T05:39:37.283Z,-4.01
2016-10-03T05:40:36.995Z,-3.99
2016-10-03T05:41:36.956Z,-3.95
2016-10-03T05:42:36.933Z,-3.88
2016-10-03T05:43:37.105Z,-3.99
2016-10-03T05:44:36.912Z,-3.97
2016-10-03T05:45:36.873Z,-3.92
2016-10-03T05:46:36.863Z,-3.79
2016-10-03T05:47:36.861Z,-3.86
2016-10-03T05:48:36.809Z,-3.98
2016-10-03T05:49:36.803Z,-3.98
2016-10-03T05:50:36.776Z,-3.89
2016-10-03T05:51:36.765Z,-3.91
2016-10-03T05:52:36.766Z,-3.97
2016-10-03T05:53:36.739Z,-3.97
2016-10-03T05:54:36.713Z,-3.99
2016-10-03T05:55:36.685Z,-3.97
2016-10-03T05:56:36.855Z,-3.83
2016-10-03T05:57:36.671Z,-3.86
2016-10-03T05:58:36.639Z,-3.89
2016-10-03T05:59:36.634Z,-3.92
2016-10-03T06:00:36.889Z,-3.95
2016-10-03T06:01:36.895Z,-3.97
2016-10-03T06:02:36.561Z,-3.94
2016-10-03T06:03:36.545Z,-4.01
2016-10-03T06:04:36.514Z,-3.86
2016-10-03T06:05:36.506Z,-4.01
2016-10-03T06:06:36.481Z,-3.98
2016-10-03T06:07:36.469Z,-3.91
2016-10-03T06:08:36.462Z,-3.98
2016-10-03T06:09:36.622Z,-3.86
2016-10-03T06:10:36.411Z,-3.8
2016-10-03T06:11:36.407Z,-3.74
2016-10-03T06:12:36.371Z,-3.79
2016-10-03T06:13:36.361Z,-3.76
2016-10-03T06:14:36.348Z,-3.68
2016-10-03T06:15:36.315Z,-3.83
2016-10-03T06:16:36.295Z,-3.8
2016-10-03T06:17:36.286Z,-3.8
2016-10-03T06:18:36.271Z,-3.77
2016-10-03T06:19:36.240Z,-3.83
2016-10-03T06:20:36.207Z,-3.79
2016-10-03T06:21:36.203Z,-3.99
2016-10-03T06:22:36.185Z,-3.97
2016-10-03T06:23:36.155Z,-3.84
2016-10-03T06:24:36.143Z,-3.98
2016-10-03T06:25:36.115Z,-3.94
2016-10-03T06:26:36.099Z,-3.98
2016-10-03T06:27:36.079Z,-4.06
2016-10-03T06:28:36.066Z,-3.98
2016-10-03T06:29:36.035Z,-4.09
2016-10-03T06:30:36.029Z,-4.02
2016-10-03T06:31:36.002Z,-3.97
2016-10-03T06:32:36.000Z,-3.98
2016-10-03T06:33:35.970Z,-3.92
2016-10-03T06:34:35.940Z,-4.01
2016-10-03T06:35:35.939Z,-4.01
2016-10-03T06:36:35.912Z,-3.94
2016-10-03T06:37:36.079Z,-3.95
2016-10-03T06:38:35.888Z,-3.95
2016-10-03T06:39:36.062Z,-3.97
2016-10-03T06:40:35.833Z,-3.89
2016-10-03T06:41:35.824Z,-3.86
2016-10-03T06:42:35.795Z,-3.84
2016-10-03T06:43:35.753Z,-3.83
2016-10-03T06:44:35.754Z,-4.01
2016-10-03T06:45:35.734Z,-3.98
2016-10-03T06:46:35.709Z,-3.91
2016-10-03T06:47:35.691Z,-3.91
2016-10-03T06:48:35.673Z,-3.99
2016-10-03T06:49:35.663Z,-3.99
2016-10-03T06:50:35.641Z,-3.83
2016-10-03T06:51:35.615Z,-4.02
2016-10-03T06:52:35.578Z,-3.94
2016-10-03T06:53:35.585Z,-3.95
2016-10-03T06:54:35.549Z,-3.98
2016-10-03T06:55:35.545Z,-3.95
2016-10-03T06:56:35.532Z,-3.94
2016-10-03T06:57:35.496Z,-3.81
2016-10-03T06:58:35.488Z,-3.83
2016-10-03T06:59:35.440Z,-3.76
2016-10-03T07:00:35.424Z,-3.76
2016-10-03T07:01:35.405Z,-3.79
2016-10-03T07:02:35.393Z,-3.84
2016-10-03T07:03:35.364Z,-3.99
2016-10-03T07:04:35.344Z,-3.94
2016-10-03T07:05:50.237Z,-3.91
2016-10-03T07:06:35.485Z,-3.95
2016-10-03T07:07:35.492Z,-3.94
2016-10-03T07:08:35.281Z,-3.99
2016-10-03T07:09:35.249Z,-3.89
2016-10-03T07:10:35.255Z,-3.88
2016-10-03T07:11:35.227Z,-3.94
2016-10-03T07:12:35.202Z,-3.95
2016-10-03T07:13:35.172Z,-3.98
2016-10-03T07:14:35.159Z,-3.83
2016-10-03T07:15:35.120Z,-3.8
2016-10-03T07:16:35.099Z,-3.8
2016-10-03T07:17:35.086Z,-3.8
2016-10-03T07:18:35.076Z,-3.76
2016-10-03T07:19:35.038Z,-3.77
2016-10-03T07:20:35.043Z,-3.74
2016-10-03T07:21:35.003Z,-3.81
2016-10-03T07:22:35.015Z,-3.7
2016-10-03T07:23:34.980Z,-3.65
2016-10-03T07:24:34.947Z,-3.77
2016-10-03T07:25:34.929Z,-3.72
2016-10-03T07:26:34.921Z,-3.68
2016-10-03T07:27:34.897Z,-3.7
2016-10-03T07:28:34.862Z,-3.76
2016-10-03T07:29:34.856Z,-3.8
2016-10-03T07:30:34.841Z,-3.74
2016-10-03T07:31:34.813Z,-3.77
2016-10-03T07:32:34.794Z,-3.88
2016-10-03T07:33:34.762Z,-3.81
2016-10-03T07:34:34.760Z,-3.81
2016-10-03T07:35:34.737Z,-3.83
2016-10-03T07:36:34.717Z,-3.77
2016-10-03T07:37:34.706Z,-3.74
2016-10-03T07:38:34.686Z,-3.8
2016-10-03T07:39:34.658Z,-3.76
2016-10-03T07:40:34.646Z,-3.74
2016-10-03T07:41:34.636Z,-3.77
2016-10-03T07:42:34.614Z,-3.92
2016-10-03T07:43:34.609Z,-3.95
2016-10-03T07:44:34.563Z,-3.89
2016-10-03T07:45:34.547Z,-3.74
2016-10-03T07:46:34.527Z,-3.68
2016-10-03T07:47:34.501Z,-3.8
2016-10-03T07:48:34.481Z,-3.8
2016-10-03T07:49:34.469Z,-3.74
2016-10-03T07:50:34.461Z,-3.74
2016-10-03T07:51:34.427Z,-3.65
2016-10-03T07:52:34.391Z,-3.59
2016-10-03T07:53:34.376Z,-3.51
2016-10-03T07:54:34.366Z,-3.41
2016-10-03T07:55:34.365Z,-3.49
2016-10-03T07:56:34.324Z,-3.49
2016-10-03T07:57:34.311Z,-3.46
2016-10-03T07:58:34.279Z,-3.34
2016-10-03T07:59:34.278Z,-3.34
2016-10-03T08:00:34.247Z,-3.4
2016-10-03T08:01:34.224Z,-3.3
2016-10-03T08:02:34.201Z,-3.23
2016-10-03T08:03:34.196Z,-3.19
2016-10-03T08:04:34.191Z,-3.16
2016-10-03T08:05:34.164Z,-3.08
2016-10-03T08:06:34.156Z,-3.08
2016-10-03T08:07:34.121Z,-3.1
2016-10-03T08:08:34.104Z,-2.95
2016-10-03T08:09:34.077Z,-2.95
2016-10-03T08:10:34.039Z,-2.95
2016-10-03T08:11:34.032Z,-3.04
2016-10-03T08:12:34.025Z,-3.01
2016-10-03T08:13:33.994Z,-3.05
2016-10-03T08:14:33.983Z,-3.12
2016-10-03T08:15:33.981Z,-3.13
2016-10-03T08:16:33.950Z,-3.02
2016-10-03T08:17:33.909Z,-2.97
2016-10-03T08:18:33.921Z,-2.79
2016-10-03T08:19:33.916Z,-2.82
2016-10-03T08:20:33.875Z,-2.69
2016-10-03T08:21:33.865Z,-2.77
2016-10-03T08:22:33.831Z,-2.72
2016-10-03T08:23:33.799Z,-2.72
2016-10-03T08:24:33.813Z,-2.76
2016-10-03T08:25:33.804Z,-2.89
2016-10-03T08:26:33.769Z,-2.74
2016-10-03T08:27:33.742Z,-2.64
2016-10-03T08:28:33.730Z,-2.62
2016-10-03T08:29:33.737Z,-2.66
2016-10-03T08:30:33.699Z,-2.64
2016-10-03T08:31:33.662Z,-2.71
2016-10-03T08:32:33.660Z,-2.64
2016-10-03T08:34:33.629Z,-2.51
2016-10-03T08:35:33.587Z,-2.44
2016-10-03T08:36:33.586Z,-2.56
2016-10-03T08:37:33.559Z,-2.53
2016-10-03T08:38:33.552Z,-2.51
2016-10-03T08:39:33.544Z,-2.43
2016-10-03T08:40:33.511Z,-2.37
2016-10-03T08:41:33.494Z,-2.44
2016-10-03T08:42:33.481Z,-2.29
2016-10-03T08:43:33.447Z,-2.22
2016-10-03T08:44:33.438Z,-2.1
2016-10-03T08:45:33.425Z,-2.01
2016-10-03T08:46:33.422Z,-1.92
2016-10-03T08:47:33.374Z,-1.89
2016-10-03T08:48:33.375Z,-1.75
2016-10-03T08:49:33.362Z,-1.62
2016-10-03T08:50:33.322Z,-1.46
2016-10-03T08:51:33.313Z,-1.31
2016-10-03T08:52:33.314Z,-1.26
2016-10-03T08:53:33.301Z,-1.15
2016-10-03T08:54:33.269Z,-1.2
2016-10-03T08:55:33.238Z,-1.41
2016-10-03T08:56:33.233Z,-1.53
2016-10-03T08:57:33.216Z,-1.5
2016-10-03T08:58:33.203Z,-1.46
2016-10-03T08:59:33.180Z,-1.29
2016-10-03T09:00:33.174Z,-1.2
2016-10-03T09:01:33.140Z,-1.14
2016-10-03T09:02:33.147Z,-1.26
2016-10-03T09:03:33.129Z,-1.31
2016-10-03T09:04:33.118Z,-1.28
2016-10-03T09:05:33.088Z,-1.29
2016-10-03T09:06:33.059Z,-1.35
2016-10-03T09:07:33.062Z,-1.56
2016-10-03T09:08:33.053Z,-1.47
2016-10-03T09:09:33.033Z,-1.49
2016-10-03T09:10:33.015Z,-1.62
2016-10-03T09:11:33.002Z,-1.68
2016-10-03T09:12:32.991Z,-1.67
2016-10-03T09:13:32.956Z,-1.67
2016-10-03T09:14:32.944Z,-1.71
2016-10-03T09:15:32.914Z,-1.61
2016-10-03T09:16:32.919Z,-1.59
2016-10-03T09:17:32.890Z,-1.68
2016-10-03T09:18:32.863Z,-1.59
2016-10-03T09:19:32.852Z,-1.36
2016-10-03T09:20:32.858Z,-1.29
2016-10-03T09:21:32.860Z,-1.18
2016-10-03T09:22:32.841Z,-1.07
2016-10-03T09:23:32.803Z,-1.08
2016-10-03T09:24:32.799Z,-1.23
2016-10-03T09:25:32.790Z,-1.39
2016-10-03T09:26:32.748Z,-1.44
2016-10-03T09:27:32.951Z,-1.36
2016-10-03T09:28:32.732Z,-1.43
2016-10-03T09:29:32.719Z,-1.47
2016-10-03T09:30:32.693Z,-1.7
2016-10-03T09:31:32.665Z,-1.62
2016-10-03T09:32:32.658Z,-1.56
2016-10-03T09:33:32.665Z,-1.43
2016-10-03T09:34:32.645Z,-1.29
2016-10-03T09:35:32.597Z,-1.35
2016-10-03T09:36:32.581Z,-1.23
2016-10-03T09:37:32.578Z,-1.08
2016-10-03T09:38:32.542Z,-1.07
2016-10-03T09:39:32.565Z,-0.96
2016-10-03T09:40:32.538Z,-0.96
2016-10-03T09:41:32.508Z,-0.95
2016-10-03T09:42:32.515Z,-0.76
2016-10-03T09:43:32.475Z,-0.74
2016-10-03T09:44:32.488Z,-0.73
2016-10-03T09:45:32.458Z,-0.74
2016-10-03T09:46:32.447Z,-0.73
2016-10-03T09:47:32.438Z,-0.76
2016-10-03T09:48:32.428Z,-0.7
2016-10-03T09:49:32.392Z,-0.76
2016-10-03T09:50:32.383Z,-0.77
2016-10-03T09:51:32.377Z,-1.14
2016-10-03T09:52:32.353Z,-1.32
2016-10-03T09:53:32.315Z,-1.26
2016-10-03T09:54:32.298Z,-1.44
2016-10-03T09:55:32.306Z,-1.47
2016-10-03T09:56:32.301Z,-1.35
2016-10-03T09:57:32.269Z,-1.32
2016-10-03T09:58:32.250Z,-1.38
2016-10-03T09:59:32.249Z,-1.31
2016-10-03T10:00:32.219Z,-1.35
2016-10-03T10:01:32.222Z,-1.1
2016-10-03T10:02:32.207Z,-0.97
2016-10-03T10:03:32.172Z,-1.02
2016-10-03T10:04:32.170Z,-0.92
2016-10-03T10:05:32.133Z,-0.78
2016-10-03T10:06:32.131Z,-0.93
2016-10-03T10:07:32.095Z,-0.81
2016-10-03T10:08:32.094Z,-0.89
2016-10-03T10:09:32.091Z,-0.81
2016-10-03T10:10:32.085Z,-0.8
2016-10-03T10:11:32.069Z,-0.73
2016-10-03T10:12:32.019Z,-0.99
2016-10-03T10:13:32.024Z,-1.14
2016-10-03T10:14:32.003Z,-1.28
2016-10-03T10:15:31.995Z,-1.32
2016-10-03T10:16:31.981Z,-1.31
2016-10-03T10:17:31.954Z,-1.35
2016-10-03T10:18:31.947Z,-1.33
2016-10-03T10:19:31.945Z,-1.25
2016-10-03T10:20:31.915Z,-1.23
2016-10-03T10:21:31.913Z,-1.13
2016-10-03T10:22:31.869Z,-1.28
2016-10-03T10:23:31.881Z,-1.21
2016-10-03T10:24:31.855Z,-0.89
2016-10-03T10:25:31.841Z,-0.83
2016-10-03T10:26:31.824Z,-0.92
2016-10-03T10:27:31.823Z,-0.92
2016-10-03T10:28:31.801Z,-1.14
2016-10-03T10:29:31.758Z,-1.03
2016-10-03T10:30:31.767Z,-1.08
2016-10-03T10:31:31.728Z,-1.08
2016-10-03T10:32:31.744Z,-1.11
2016-10-03T10:33:31.691Z,-1.17
2016-10-03T10:34:31.707Z,-1.18
2016-10-03T10:35:31.660Z,-1.08
2016-10-03T10:36:31.662Z,-1.05
2016-10-03T10:37:31.655Z,-1.23
2016-10-03T10:38:31.627Z,-1.14
2016-10-03T10:39:31.629Z,-1.15
2016-10-03T10:40:31.598Z,-1.02
2016-10-03T10:41:31.583Z,-0.99
2016-10-03T10:42:31.557Z,-0.89
2016-10-03T10:43:31.536Z,-0.86
2016-10-03T10:44:31.548Z,-0.97
2016-10-03T10:45:31.509Z,-0.97
2016-10-03T10:46:31.513Z,-0.97
2016-10-03T10:47:31.473Z,-0.99
2016-10-03T10:48:31.461Z,-1.17
2016-10-03T10:49:31.432Z,-1.25
2016-10-03T10:50:31.409Z,-1.36
2016-10-03T10:51:31.405Z,-1.31
2016-10-03T10:52:31.392Z,-1.39
2016-10-03T10:53:31.374Z,-1.47
2016-10-03T10:54:31.371Z,-1.71
2016-10-03T10:55:31.349Z,-1.74
2016-10-03T10:56:31.319Z,-1.92
2016-10-03T10:57:31.301Z,-2.1
2016-10-03T10:58:31.303Z,-2.13
2016-10-03T10:59:31.582Z,-2.28
2016-10-03T11:00:31.275Z,-2.38
2016-10-03T11:01:31.235Z,-2.37
2016-10-03T11:02:31.240Z,-2.41
2016-10-03T11:03:31.206Z,-2.44
2016-10-03T11:04:31.182Z,-2.5
2016-10-03T11:05:31.161Z,-2.35
2016-10-03T11:06:31.154Z,-2.35
2016-10-03T11:07:31.132Z,-2.44
2016-10-03T11:08:31.103Z,-2.35
2016-10-03T11:09:31.099Z,-2.33
2016-10-03T11:10:31.067Z,-2.33
2016-10-03T11:11:31.062Z,-2.21
2016-10-03T11:12:31.033Z,-2.25
2016-10-03T11:13:31.020Z,-2.29
2016-10-03T11:14:31.007Z,-2.19
2016-10-03T11:15:30.990Z,-2.32
2016-10-03T11:16:30.962Z,-2.21
2016-10-03T11:17:30.954Z,-2.08
2016-10-03T11:18:30.922Z,-2.26
2016-10-03T11:19:30.911Z,-2.26
2016-10-03T11:20:30.907Z,-2.32
2016-10-03T11:21:30.888Z,-2.28
2016-10-03T11:22:30.871Z,-2.24
2016-10-03T11:23:30.847Z,-2.03
2016-10-03T11:24:30.821Z,-1.88
2016-10-03T11:25:30.805Z,-1.75
2016-10-03T11:26:30.800Z,-1.64
2016-10-03T11:27:30.771Z,-1.65
2016-10-03T11:28:30.752Z,-1.68
2016-10-03T11:29:30.732Z,-1.7
2016-10-03T11:30:30.729Z,-1.62
2016-10-03T11:31:30.695Z,-1.43
2016-10-03T11:32:30.694Z,-1.38
2016-10-03T11:33:30.681Z,-1.38
2016-10-03T11:34:30.640Z,-1.39
2016-10-03T11:35:30.635Z,-1.29
2016-10-03T11:36:30.606Z,-1.23
2016-10-03T11:37:30.586Z,-1.26
2016-10-03T11:38:30.574Z,-1.1
2016-10-03T11:39:30.563Z,-1.02
2016-10-03T11:40:30.852Z,-0.9
2016-10-03T11:41:30.531Z,-1.05
2016-10-03T11:42:30.509Z,-1.1
2016-10-03T11:43:30.484Z,-1.21
2016-10-03T11:44:30.478Z,-1.1
2016-10-03T11:45:30.473Z,-1.11
2016-10-03T11:46:30.455Z,-0.97
2016-10-03T11:47:30.433Z,-0.92
2016-10-03T11:48:30.412Z,-0.85
2016-10-03T11:49:30.394Z,-0.89
2016-10-03T11:50:30.384Z,-0.95
2016-10-03T11:51:30.358Z,-0.96
2016-10-03T11:52:30.347Z,-0.93
2016-10-03T11:53:30.336Z,-0.92
2016-10-03T11:54:30.321Z,-0.96
2016-10-03T11:55:30.299Z,-1.03
2016-10-03T11:56:30.281Z,-1.15
2016-10-03T11:57:30.273Z,-1.33
2016-10-03T11:58:30.255Z,-1.29
2016-10-03T11:59:30.256Z,-1.44
2016-10-03T12:00:30.222Z,-1.35
2016-10-03T12:01:30.208Z,-1.21
2016-10-03T12:02:30.177Z,-1.03
2016-10-03T12:03:30.160Z,-1.11
2016-10-03T12:04:30.158Z,-1.14
2016-10-03T12:05:30.149Z,-1.11
2016-10-03T12:06:30.104Z,-1.21
2016-10-03T12:07:30.084Z,-1.32
2016-10-03T12:08:30.105Z,-1.21
2016-10-03T12:09:30.052Z,-1.28
2016-10-03T12:10:30.052Z,-1.41
2016-10-03T12:11:30.029Z,-1.41
2016-10-03T12:12:30.039Z,-1.49
2016-10-03T12:13:30.009Z,-1.5
2016-10-03T12:14:29.966Z,-1.56
2016-10-03T12:15:29.980Z,-1.47
2016-10-03T12:16:29.949Z,-1.36
2016-10-03T12:17:29.948Z,-1.38
2016-10-03T12:18:29.938Z,-1.44
2016-10-03T12:19:29.914Z,-1.41
2016-10-03T12:20:29.912Z,-1.46
2016-10-03T12:21:29.858Z,-1.57
2016-10-03T12:22:29.853Z,-1.7
2016-10-03T12:23:29.842Z,-1.65
2016-10-03T12:24:29.828Z,-1.67
2016-10-03T12:25:29.799Z,-1.67
2016-10-03T12:26:29.769Z,-1.72
2016-10-03T12:27:29.774Z,-1.77
2016-10-03T12:28:29.762Z,-2.03
2016-10-03T12:29:29.734Z,-2.04
2016-10-03T12:30:29.715Z,-2.14
2016-10-03T12:31:29.705Z,-2.37
2016-10-03T12:32:29.683Z,-2.29
2016-10-03T12:33:29.651Z,-2.37
2016-10-03T12:34:29.644Z,-2.29
2016-10-03T12:35:29.623Z,-2.35
2016-10-03T12:36:29.625Z,-2.4
2016-10-03T12:37:29.612Z,-2.41
2016-10-03T12:38:29.591Z,-2.37
2016-10-03T12:39:29.572Z,-2.33
2016-10-03T12:40:29.527Z,-2.38
2016-10-03T12:41:29.517Z,-2.4
2016-10-03T12:42:29.518Z,-2.41
2016-10-03T12:43:29.809Z,-2.33
2016-10-03T12:44:29.458Z,-2.48
2016-10-03T12:45:29.452Z,-2.55
2016-10-03T12:46:29.456Z,-2.56
2016-10-03T12:47:29.421Z,-2.62
2016-10-03T12:48:29.394Z,-2.56
2016-10-03T12:49:29.385Z,-2.44
2016-10-03T12:50:29.366Z,-2.47
2016-10-03T12:51:29.378Z,-2.37
2016-10-03T12:52:29.340Z,-2.21
2016-10-03T12:53:29.305Z,-2.24
2016-10-03T12:54:29.310Z,-1.92
2016-10-03T12:55:29.492Z,-1.86
2016-10-03T12:56:29.241Z,-1.77